sensor_id;sensor_type;location;lat;lon;timestamp;temperature;humidity
5023;DHT22;2530;47.990;7.866;2023-02-05T00:01:17;2.50;99.90
5023;DHT22;2530;47.990;7.866;2023-02-05T00:03:43;2.50;99.90
5023;DHT22;2530;47.990;7.866;2023-02-05T00:06:09;2.40;99.90
5023;DHT22;2530;47.990;7.866;2023-02-05T00:08:34;2.20;99.90
5023;DHT22;2530;47.990;7.866;2023-02-05T00:11:00;2.40;99.90
5023;DHT22;2530;47.990;7.866;2023-02-05T00:13:36;2.50;99.90
5023;DHT22;2530;47.990;7.866;2023-02-05T00:16:12;2.50;99.90
5023;DHT22;2530;47.990;7.866;2023-02-05T00:18:38;2.40;99.90
5023;DHT22;2530;47.990;7.866;2023-02-05T00:21:04;2.50;99.90
5023;DHT22;2530;47.990;7.866;2023-02-05T00:23:30;2.50;99.90
5023;DHT22;2530;47.990;7.866;2023-02-05T00:25:56;2.60;99.90
5023;DHT22;2530;47.990;7.866;2023-02-05T00:28:22;2.60;99.90
5023;DHT22;2530;47.990;7.866;2023-02-05T00:30:47;2.50;99.90
5023;DHT22;2530;47.990;7.866;2023-02-05T00:33:13;2.40;99.90
5023;DHT22;2530;47.990;7.866;2023-02-05T00:35:41;2.40;99.90
5023;DHT22;2530;47.990;7.866;2023-02-05T00:38:07;2.30;99.90
5023;DHT22;2530;47.990;7.866;2023-02-05T00:40:32;2.30;99.90
5023;DHT22;2530;47.990;7.866;2023-02-05T00:42:58;2.30;99.90
5023;DHT22;2530;47.990;7.866;2023-02-05T00:45:23;2.30;99.90
5023;DHT22;2530;47.990;7.866;2023-02-05T00:47:49;2.00;99.90
5023;DHT22;2530;47.990;7.866;2023-02-05T00:50:15;2.30;99.90
5023;DHT22;2530;47.990;7.866;2023-02-05T00:52:41;2.30;99.90
5023;DHT22;2530;47.990;7.866;2023-02-05T00:55:06;2.10;99.90
5023;DHT22;2530;47.990;7.866;2023-02-05T00:57:32;2.40;99.90
5023;DHT22;2530;47.990;7.866;2023-02-05T00:59:58;2.00;99.90
5023;DHT22;2530;47.990;7.866;2023-02-05T01:02:23;2.00;99.90
5023;DHT22;2530;47.990;7.866;2023-02-05T01:04:50;1.90;99.90
5023;DHT22;2530;47.990;7.866;2023-02-05T01:07:20;1.90;99.90
5023;DHT22;2530;47.990;7.866;2023-02-05T01:09:45;1.90;99.90
5023;DHT22;2530;47.990;7.866;2023-02-05T01:12:11;1.80;99.90
5023;DHT22;2530;47.990;7.866;2023-02-05T01:14:39;2.30;99.90
5023;DHT22;2530;47.990;7.866;2023-02-05T01:17:05;1.00;99.90
5023;DHT22;2530;47.990;7.866;2023-02-05T01:19:33;1.70;99.90
5023;DHT22;2530;47.990;7.866;2023-02-05T01:21:58;1.50;99.90
5023;DHT22;2530;47.990;7.866;2023-02-05T01:24:24;1.60;99.90
5023;DHT22;2530;47.990;7.866;2023-02-05T01:26:49;1.70;99.90
5023;DHT22;2530;47.990;7.866;2023-02-05T01:29:15;1.80;99.90
5023;DHT22;2530;47.990;7.866;2023-02-05T01:31:41;1.80;99.90
5023;DHT22;2530;47.990;7.866;2023-02-05T01:34:06;1.70;99.90
5023;DHT22;2530;47.990;7.866;2023-02-05T01:36:32;1.70;99.90
5023;DHT22;2530;47.990;7.866;2023-02-05T01:38:57;1.70;99.90
5023;DHT22;2530;47.990;7.866;2023-02-05T01:41:23;1.20;99.90
5023;DHT22;2530;47.990;7.866;2023-02-05T01:44:24;1.60;99.90
5023;DHT22;2530;47.990;7.866;2023-02-05T01:46:54;1.60;99.90
5023;DHT22;2530;47.990;7.866;2023-02-05T01:49:38;1.60;99.90
5023;DHT22;2530;47.990;7.866;2023-02-05T01:52:08;1.60;99.90
5023;DHT22;2530;47.990;7.866;2023-02-05T01:54:38;1.50;99.90
5023;DHT22;2530;47.990;7.866;2023-02-05T01:57:10;1.50;99.90
5023;DHT22;2530;47.990;7.866;2023-02-05T01:59:38;1.50;99.90
5023;DHT22;2530;47.990;7.866;2023-02-05T02:02:05;1.50;99.90
5023;DHT22;2530;47.990;7.866;2023-02-05T02:04:38;1.30;99.90
5023;DHT22;2530;47.990;7.866;2023-02-05T02:07:06;1.50;99.90
5023;DHT22;2530;47.990;7.866;2023-02-05T02:09:33;1.50;99.90
5023;DHT22;2530;47.990;7.866;2023-02-05T02:11:59;1.40;99.90
5023;DHT22;2530;47.990;7.866;2023-02-05T02:14:26;1.40;99.90
5023;DHT22;2530;47.990;7.866;2023-02-05T02:16:52;1.20;99.90
5023;DHT22;2530;47.990;7.866;2023-02-05T02:19:27;1.40;99.90
5023;DHT22;2530;47.990;7.866;2023-02-05T02:22:11;1.40;99.90
5023;DHT22;2530;47.990;7.866;2023-02-05T02:30:25;1.40;99.90
5023;DHT22;2530;47.990;7.866;2023-02-05T02:33:14;1.40;99.90
5023;DHT22;2530;47.990;7.866;2023-02-05T02:35:51;1.40;99.90
5023;DHT22;2530;47.990;7.866;2023-02-05T02:38:42;1.30;99.90
5023;DHT22;2530;47.990;7.866;2023-02-05T02:41:18;1.30;99.90
5023;DHT22;2530;47.990;7.866;2023-02-05T02:44:03;1.40;99.90
5023;DHT22;2530;47.990;7.866;2023-02-05T02:46:40;1.50;99.90
5023;DHT22;2530;47.990;7.866;2023-02-05T02:49:12;1.20;99.90
5023;DHT22;2530;47.990;7.866;2023-02-05T02:51:41;1.20;99.90
5023;DHT22;2530;47.990;7.866;2023-02-05T02:54:09;1.20;99.90
5023;DHT22;2530;47.990;7.866;2023-02-05T02:56:39;1.10;99.90
5023;DHT22;2530;47.990;7.866;2023-02-05T02:59:08;1.10;99.90
5023;DHT22;2530;47.990;7.866;2023-02-05T03:01:37;1.10;99.90
5023;DHT22;2530;47.990;7.866;2023-02-05T03:04:08;1.10;99.90
5023;DHT22;2530;47.990;7.866;2023-02-05T03:06:37;1.10;99.90
5023;DHT22;2530;47.990;7.866;2023-02-05T03:09:12;1.10;99.90
5023;DHT22;2530;47.990;7.866;2023-02-05T03:11:40;1.00;99.90
5023;DHT22;2530;47.990;7.866;2023-02-05T03:14:05;0.90;99.90
5023;DHT22;2530;47.990;7.866;2023-02-05T03:16:31;1.00;99.90
5023;DHT22;2530;47.990;7.866;2023-02-05T03:18:57;1.10;99.90
5023;DHT22;2530;47.990;7.866;2023-02-05T03:21:29;1.10;99.90
5023;DHT22;2530;47.990;7.866;2023-02-05T03:23:57;1.10;99.90
5023;DHT22;2530;47.990;7.866;2023-02-05T03:26:31;1.10;99.90
5023;DHT22;2530;47.990;7.866;2023-02-05T03:29:00;1.10;99.90
5023;DHT22;2530;47.990;7.866;2023-02-05T03:32:00;1.00;99.90
5023;DHT22;2530;47.990;7.866;2023-02-05T03:40:21;1.10;99.90
5023;DHT22;2530;47.990;7.866;2023-02-05T03:43:01;1.00;99.90
5023;DHT22;2530;47.990;7.866;2023-02-05T03:53:19;1.00;99.90
5023;DHT22;2530;47.990;7.866;2023-02-05T03:55:51;0.90;99.90
5023;DHT22;2530;47.990;7.866;2023-02-05T03:58:27;0.90;99.90
5023;DHT22;2530;47.990;7.866;2023-02-05T04:00:55;0.90;99.90
5023;DHT22;2530;47.990;7.866;2023-02-05T04:03:21;0.90;99.90
5023;DHT22;2530;47.990;7.866;2023-02-05T04:05:47;0.90;99.90
5023;DHT22;2530;47.990;7.866;2023-02-05T04:08:12;0.50;99.90
5023;DHT22;2530;47.990;7.866;2023-02-05T04:10:38;0.90;99.90
5023;DHT22;2530;47.990;7.866;2023-02-05T04:13:03;0.80;99.90
5023;DHT22;2530;47.990;7.866;2023-02-05T04:15:29;0.80;99.90
5023;DHT22;2530;47.990;7.866;2023-02-05T04:17:55;0.80;99.90
5023;DHT22;2530;47.990;7.866;2023-02-05T04:20:22;0.80;99.90
5023;DHT22;2530;47.990;7.866;2023-02-05T04:22:48;0.90;99.90
5023;DHT22;2530;47.990;7.866;2023-02-05T04:25:13;0.90;99.90
5023;DHT22;2530;47.990;7.866;2023-02-05T04:27:39;0.80;99.90
5023;DHT22;2530;47.990;7.866;2023-02-05T04:30:05;1.00;99.90
5023;DHT22;2530;47.990;7.866;2023-02-05T04:32:31;0.90;99.90
5023;DHT22;2530;47.990;7.866;2023-02-05T04:34:56;0.80;99.90
5023;DHT22;2530;47.990;7.866;2023-02-05T04:37:22;0.90;99.90
5023;DHT22;2530;47.990;7.866;2023-02-05T04:39:49;1.00;99.90
5023;DHT22;2530;47.990;7.866;2023-02-05T04:42:15;1.00;99.90
5023;DHT22;2530;47.990;7.866;2023-02-05T04:44:41;0.90;99.90
5023;DHT22;2530;47.990;7.866;2023-02-05T04:47:06;0.90;99.90
5023;DHT22;2530;47.990;7.866;2023-02-05T04:49:32;0.90;99.90
5023;DHT22;2530;47.990;7.866;2023-02-05T04:51:58;1.00;99.90
5023;DHT22;2530;47.990;7.866;2023-02-05T04:54:23;1.10;99.90
5023;DHT22;2530;47.990;7.866;2023-02-05T04:56:49;1.10;99.90
5023;DHT22;2530;47.990;7.866;2023-02-05T04:59:14;1.00;99.90
5023;DHT22;2530;47.990;7.866;2023-02-05T05:01:40;1.20;99.90
5023;DHT22;2530;47.990;7.866;2023-02-05T05:04:05;1.30;99.90
5023;DHT22;2530;47.990;7.866;2023-02-05T05:06:31;1.50;99.90
5023;DHT22;2530;47.990;7.866;2023-02-05T05:08:56;1.50;99.90
5023;DHT22;2530;47.990;7.866;2023-02-05T05:11:22;1.60;99.90
5023;DHT22;2530;47.990;7.866;2023-02-05T05:13:48;1.60;99.90
5023;DHT22;2530;47.990;7.866;2023-02-05T05:16:14;1.50;99.90
5023;DHT22;2530;47.990;7.866;2023-02-05T05:18:39;1.50;99.90
5023;DHT22;2530;47.990;7.866;2023-02-05T05:21:05;1.60;99.90
5023;DHT22;2530;47.990;7.866;2023-02-05T05:23:32;1.30;99.90
5023;DHT22;2530;47.990;7.866;2023-02-05T05:25:57;1.60;99.90
5023;DHT22;2530;47.990;7.866;2023-02-05T05:28:23;1.60;99.90
5023;DHT22;2530;47.990;7.866;2023-02-05T05:30:49;1.60;99.90
5023;DHT22;2530;47.990;7.866;2023-02-05T05:33:15;1.40;99.90
5023;DHT22;2530;47.990;7.866;2023-02-05T05:35:40;1.60;99.90
5023;DHT22;2530;47.990;7.866;2023-02-05T05:38:06;1.60;99.90
5023;DHT22;2530;47.990;7.866;2023-02-05T05:40:33;1.60;99.90
5023;DHT22;2530;47.990;7.866;2023-02-05T05:43:19;1.80;99.90
5023;DHT22;2530;47.990;7.866;2023-02-05T05:46:04;1.80;99.90
5023;DHT22;2530;47.990;7.866;2023-02-05T05:48:30;1.70;99.90
5023;DHT22;2530;47.990;7.866;2023-02-05T05:50:55;1.80;99.90
5023;DHT22;2530;47.990;7.866;2023-02-05T05:53:21;1.80;99.90
5023;DHT22;2530;47.990;7.866;2023-02-05T05:55:47;1.80;99.90
5023;DHT22;2530;47.990;7.866;2023-02-05T05:58:13;1.80;99.90
5023;DHT22;2530;47.990;7.866;2023-02-05T06:00:39;1.90;99.90
5023;DHT22;2530;47.990;7.866;2023-02-05T06:03:05;1.90;99.90
5023;DHT22;2530;47.990;7.866;2023-02-05T06:05:32;2.00;99.90
5023;DHT22;2530;47.990;7.866;2023-02-05T06:07:58;1.90;99.90
5023;DHT22;2530;47.990;7.866;2023-02-05T06:10:24;2.00;99.90
5023;DHT22;2530;47.990;7.866;2023-02-05T06:12:50;1.90;99.90
5023;DHT22;2530;47.990;7.866;2023-02-05T06:15:18;1.80;99.90
5023;DHT22;2530;47.990;7.866;2023-02-05T06:17:43;2.00;99.90
5023;DHT22;2530;47.990;7.866;2023-02-05T06:20:09;2.20;99.90
5023;DHT22;2530;47.990;7.866;2023-02-05T06:22:36;1.80;99.90
5023;DHT22;2530;47.990;7.866;2023-02-05T06:25:02;1.60;99.90
5023;DHT22;2530;47.990;7.866;2023-02-05T06:27:29;1.90;99.90
5023;DHT22;2530;47.990;7.866;2023-02-05T06:29:54;2.00;99.90
5023;DHT22;2530;47.990;7.866;2023-02-05T06:32:20;1.90;99.90
5023;DHT22;2530;47.990;7.866;2023-02-05T06:34:46;2.00;99.90
5023;DHT22;2530;47.990;7.866;2023-02-05T06:37:12;2.20;99.90
5023;DHT22;2530;47.990;7.866;2023-02-05T06:39:37;2.20;99.90
5023;DHT22;2530;47.990;7.866;2023-02-05T06:42:03;2.20;99.90
5023;DHT22;2530;47.990;7.866;2023-02-05T06:44:29;2.20;99.90
5023;DHT22;2530;47.990;7.866;2023-02-05T06:46:54;2.10;99.90
5023;DHT22;2530;47.990;7.866;2023-02-05T06:49:20;2.10;99.90
5023;DHT22;2530;47.990;7.866;2023-02-05T06:51:46;2.10;99.90
5023;DHT22;2530;47.990;7.866;2023-02-05T06:54:11;2.10;99.90
5023;DHT22;2530;47.990;7.866;2023-02-05T06:56:37;2.10;99.90
5023;DHT22;2530;47.990;7.866;2023-02-05T06:59:03;2.10;99.90
5023;DHT22;2530;47.990;7.866;2023-02-05T07:01:28;2.30;99.90
5023;DHT22;2530;47.990;7.866;2023-02-05T07:03:54;2.20;99.90
5023;DHT22;2530;47.990;7.866;2023-02-05T07:06:21;2.20;99.90
5023;DHT22;2530;47.990;7.866;2023-02-05T07:08:48;2.30;99.90
5023;DHT22;2530;47.990;7.866;2023-02-05T07:11:14;1.90;99.90
5023;DHT22;2530;47.990;7.866;2023-02-05T07:13:40;2.30;99.90
5023;DHT22;2530;47.990;7.866;2023-02-05T07:16:05;2.50;99.90
5023;DHT22;2530;47.990;7.866;2023-02-05T07:18:32;2.40;99.90
5023;DHT22;2530;47.990;7.866;2023-02-05T07:20:58;2.20;99.90
5023;DHT22;2530;47.990;7.866;2023-02-05T07:23:24;2.20;99.90
5023;DHT22;2530;47.990;7.866;2023-02-05T07:25:49;2.30;99.90
5023;DHT22;2530;47.990;7.866;2023-02-05T07:28:15;2.40;99.90
5023;DHT22;2530;47.990;7.866;2023-02-05T07:30:40;2.60;99.90
5023;DHT22;2530;47.990;7.866;2023-02-05T07:33:06;2.60;99.90
5023;DHT22;2530;47.990;7.866;2023-02-05T07:35:35;2.60;99.90
5023;DHT22;2530;47.990;7.866;2023-02-05T07:38:00;2.70;99.90
5023;DHT22;2530;47.990;7.866;2023-02-05T07:40:26;2.80;99.90
5023;DHT22;2530;47.990;7.866;2023-02-05T07:42:51;3.00;99.90
5023;DHT22;2530;47.990;7.866;2023-02-05T07:45:17;2.90;99.90
5023;DHT22;2530;47.990;7.866;2023-02-05T07:47:42;2.90;99.90
5023;DHT22;2530;47.990;7.866;2023-02-05T07:50:08;3.00;99.90
5023;DHT22;2530;47.990;7.866;2023-02-05T07:52:34;3.00;99.90
5023;DHT22;2530;47.990;7.866;2023-02-05T07:54:59;2.80;99.90
5023;DHT22;2530;47.990;7.866;2023-02-05T07:57:25;2.90;99.90
5023;DHT22;2530;47.990;7.866;2023-02-05T07:59:53;2.90;99.90
5023;DHT22;2530;47.990;7.866;2023-02-05T08:02:18;2.80;99.90
5023;DHT22;2530;47.990;7.866;2023-02-05T08:04:44;2.80;99.90
5023;DHT22;2530;47.990;7.866;2023-02-05T08:07:12;2.80;99.90
5023;DHT22;2530;47.990;7.866;2023-02-05T08:09:38;2.80;99.90
5023;DHT22;2530;47.990;7.866;2023-02-05T08:12:04;2.80;99.90
5023;DHT22;2530;47.990;7.866;2023-02-05T08:14:30;2.90;99.90
5023;DHT22;2530;47.990;7.866;2023-02-05T08:16:57;2.80;99.90
5023;DHT22;2530;47.990;7.866;2023-02-05T08:19:23;2.90;99.90
5023;DHT22;2530;47.990;7.866;2023-02-05T08:21:49;2.90;99.90
5023;DHT22;2530;47.990;7.866;2023-02-05T08:24:15;3.10;99.90
5023;DHT22;2530;47.990;7.866;2023-02-05T08:26:40;3.10;99.90
5023;DHT22;2530;47.990;7.866;2023-02-05T08:29:06;3.10;99.90
5023;DHT22;2530;47.990;7.866;2023-02-05T08:31:34;3.30;99.90
5023;DHT22;2530;47.990;7.866;2023-02-05T08:34:01;3.10;99.90
5023;DHT22;2530;47.990;7.866;2023-02-05T08:36:27;2.90;99.90
5023;DHT22;2530;47.990;7.866;2023-02-05T08:38:53;3.00;99.90
5023;DHT22;2530;47.990;7.866;2023-02-05T08:41:19;3.20;99.90
5023;DHT22;2530;47.990;7.866;2023-02-05T08:43:47;3.30;99.90
5023;DHT22;2530;47.990;7.866;2023-02-05T08:46:19;3.30;99.90
5023;DHT22;2530;47.990;7.866;2023-02-05T08:48:48;3.20;99.90
5023;DHT22;2530;47.990;7.866;2023-02-05T08:51:14;3.40;99.90
5023;DHT22;2530;47.990;7.866;2023-02-05T08:53:40;3.40;99.90
5023;DHT22;2530;47.990;7.866;2023-02-05T08:56:07;3.40;99.90
5023;DHT22;2530;47.990;7.866;2023-02-05T08:58:35;3.20;99.90
5023;DHT22;2530;47.990;7.866;2023-02-05T09:01:03;3.10;99.90
5023;DHT22;2530;47.990;7.866;2023-02-05T09:03:29;3.30;99.90
5023;DHT22;2530;47.990;7.866;2023-02-05T09:05:56;3.20;99.90
5023;DHT22;2530;47.990;7.866;2023-02-05T09:08:22;3.20;99.90
5023;DHT22;2530;47.990;7.866;2023-02-05T09:10:48;3.30;99.90
5023;DHT22;2530;47.990;7.866;2023-02-05T09:13:13;3.50;99.90
5023;DHT22;2530;47.990;7.866;2023-02-05T09:15:43;3.50;99.90
5023;DHT22;2530;47.990;7.866;2023-02-05T09:18:09;3.50;99.90
5023;DHT22;2530;47.990;7.866;2023-02-05T09:20:48;3.40;99.90
5023;DHT22;2530;47.990;7.866;2023-02-05T09:23:15;3.30;99.90
5023;DHT22;2530;47.990;7.866;2023-02-05T09:25:41;3.80;99.90
5023;DHT22;2530;47.990;7.866;2023-02-05T09:28:08;3.70;99.90
5023;DHT22;2530;47.990;7.866;2023-02-05T09:30:39;3.60;99.90
5023;DHT22;2530;47.990;7.866;2023-02-05T09:33:05;3.60;99.90
5023;DHT22;2530;47.990;7.866;2023-02-05T09:35:31;3.80;99.90
5023;DHT22;2530;47.990;7.866;2023-02-05T09:37:58;3.80;99.90
5023;DHT22;2530;47.990;7.866;2023-02-05T09:40:28;3.90;99.90
5023;DHT22;2530;47.990;7.866;2023-02-05T09:43:06;3.90;99.90
5023;DHT22;2530;47.990;7.866;2023-02-05T09:45:52;4.10;99.90
5023;DHT22;2530;47.990;7.866;2023-02-05T09:50:57;3.90;99.90
5023;DHT22;2530;47.990;7.866;2023-02-05T09:53:24;3.90;99.90
5023;DHT22;2530;47.990;7.866;2023-02-05T09:55:52;3.90;99.90
5023;DHT22;2530;47.990;7.866;2023-02-05T09:58:22;3.90;99.90
5023;DHT22;2530;47.990;7.866;2023-02-05T10:03:42;3.90;99.90
5023;DHT22;2530;47.990;7.866;2023-02-05T10:11:30;3.90;99.90
5023;DHT22;2530;47.990;7.866;2023-02-05T10:22:33;3.80;99.90
5023;DHT22;2530;47.990;7.866;2023-02-05T10:25:40;4.00;99.90
5023;DHT22;2530;47.990;7.866;2023-02-05T10:28:39;3.80;99.90
5023;DHT22;2530;47.990;7.866;2023-02-05T10:33:48;3.80;99.90
5023;DHT22;2530;47.990;7.866;2023-02-05T10:36:14;3.90;99.90
5023;DHT22;2530;47.990;7.866;2023-02-05T10:38:45;4.10;99.90
5023;DHT22;2530;47.990;7.866;2023-02-05T10:41:35;4.20;99.90
5023;DHT22;2530;47.990;7.866;2023-02-05T10:46:38;4.20;99.90
5023;DHT22;2530;47.990;7.866;2023-02-05T10:52:13;4.00;99.90
5023;DHT22;2530;47.990;7.866;2023-02-05T10:54:39;4.10;99.90
5023;DHT22;2530;47.990;7.866;2023-02-05T10:57:15;4.20;99.90
5023;DHT22;2530;47.990;7.866;2023-02-05T10:59:51;4.20;99.90
5023;DHT22;2530;47.990;7.866;2023-02-05T11:02:18;4.20;99.90
5023;DHT22;2530;47.990;7.866;2023-02-05T11:04:54;4.00;99.90
5023;DHT22;2530;47.990;7.866;2023-02-05T11:07:26;4.30;99.90
5023;DHT22;2530;47.990;7.866;2023-02-05T11:09:53;4.10;99.90
5023;DHT22;2530;47.990;7.866;2023-02-05T11:12:28;4.20;99.90
5023;DHT22;2530;47.990;7.866;2023-02-05T11:15:00;4.00;99.90
5023;DHT22;2530;47.990;7.866;2023-02-05T11:17:32;4.10;99.90
5023;DHT22;2530;47.990;7.866;2023-02-05T11:20:04;4.10;99.90
5023;DHT22;2530;47.990;7.866;2023-02-05T11:22:33;4.10;99.90
5023;DHT22;2530;47.990;7.866;2023-02-05T11:25:21;4.20;99.90
5023;DHT22;2530;47.990;7.866;2023-02-05T11:32:50;4.40;99.90
5023;DHT22;2530;47.990;7.866;2023-02-05T11:37:47;4.70;99.90
5023;DHT22;2530;47.990;7.866;2023-02-05T11:40:28;4.80;99.90
5023;DHT22;2530;47.990;7.866;2023-02-05T11:43:31;4.80;99.90
5023;DHT22;2530;47.990;7.866;2023-02-05T11:45:59;4.80;99.90
5023;DHT22;2530;47.990;7.866;2023-02-05T11:48:43;4.70;99.90
5023;DHT22;2530;47.990;7.866;2023-02-05T11:51:13;4.80;99.90
5023;DHT22;2530;47.990;7.866;2023-02-05T11:53:53;4.70;99.90
5023;DHT22;2530;47.990;7.866;2023-02-05T11:56:22;4.70;99.90
5023;DHT22;2530;47.990;7.866;2023-02-05T11:59:03;4.60;99.90
5023;DHT22;2530;47.990;7.866;2023-02-05T12:01:32;4.70;99.90
5023;DHT22;2530;47.990;7.866;2023-02-05T12:04:12;4.50;99.90
5023;DHT22;2530;47.990;7.866;2023-02-05T12:06:54;4.30;99.90
5023;DHT22;2530;47.990;7.866;2023-02-05T12:09:23;4.40;99.90
5023;DHT22;2530;47.990;7.866;2023-02-05T12:11:52;4.30;99.90
5023;DHT22;2530;47.990;7.866;2023-02-05T12:20:24;4.60;99.90
5023;DHT22;2530;47.990;7.866;2023-02-05T12:23:21;4.50;99.90
5023;DHT22;2530;47.990;7.866;2023-02-05T12:36:59;4.40;99.90
5023;DHT22;2530;47.990;7.866;2023-02-05T12:40:00;4.40;99.90
5023;DHT22;2530;47.990;7.866;2023-02-05T12:42:35;4.80;99.90
5023;DHT22;2530;47.990;7.866;2023-02-05T12:45:57;4.90;99.90
5023;DHT22;2530;47.990;7.866;2023-02-05T12:48:27;4.60;99.90
5023;DHT22;2530;47.990;7.866;2023-02-05T12:53:56;4.60;99.90
5023;DHT22;2530;47.990;7.866;2023-02-05T12:59:13;4.80;99.90
5023;DHT22;2530;47.990;7.866;2023-02-05T13:01:56;4.90;99.90
5023;DHT22;2530;47.990;7.866;2023-02-05T13:04:43;4.90;99.90
5023;DHT22;2530;47.990;7.866;2023-02-05T13:07:26;5.00;99.90
5023;DHT22;2530;47.990;7.866;2023-02-05T13:12:56;5.00;99.90
5023;DHT22;2530;47.990;7.866;2023-02-05T13:15:39;4.90;99.90
5023;DHT22;2530;47.990;7.866;2023-02-05T13:21:10;4.30;99.90
5023;DHT22;2530;47.990;7.866;2023-02-05T13:24:14;4.80;99.90
5023;DHT22;2530;47.990;7.866;2023-02-05T13:27:09;4.70;99.90
5023;DHT22;2530;47.990;7.866;2023-02-05T13:29:57;4.90;99.90
5023;DHT22;2530;47.990;7.866;2023-02-05T13:32:24;5.70;99.90
5023;DHT22;2530;47.990;7.866;2023-02-05T13:34:55;4.80;99.90
5023;DHT22;2530;47.990;7.866;2023-02-05T13:37:46;4.80;99.90
5023;DHT22;2530;47.990;7.866;2023-02-05T13:49:05;4.80;99.90
5023;DHT22;2530;47.990;7.866;2023-02-05T13:51:47;4.60;99.90
5023;DHT22;2530;47.990;7.866;2023-02-05T13:59:47;4.60;99.90
5023;DHT22;2530;47.990;7.866;2023-02-05T14:02:35;4.60;99.90
5023;DHT22;2530;47.990;7.866;2023-02-05T14:05:03;4.60;99.90
5023;DHT22;2530;47.990;7.866;2023-02-05T14:07:48;4.60;99.90
5023;DHT22;2530;47.990;7.866;2023-02-05T14:10:30;4.70;99.90
5023;DHT22;2530;47.990;7.866;2023-02-05T14:13:20;4.50;99.90
5023;DHT22;2530;47.990;7.866;2023-02-05T14:15:47;4.50;99.90
5023;DHT22;2530;47.990;7.866;2023-02-05T14:23:59;4.70;99.90
5023;DHT22;2530;47.990;7.866;2023-02-05T14:26:50;4.60;99.90
5023;DHT22;2530;47.990;7.866;2023-02-05T14:29:42;4.60;99.90
5023;DHT22;2530;47.990;7.866;2023-02-05T14:35:02;4.60;99.90
5023;DHT22;2530;47.990;7.866;2023-02-05T14:37:41;4.50;99.90
5023;DHT22;2530;47.990;7.866;2023-02-05T14:40:25;4.70;99.90
5023;DHT22;2530;47.990;7.866;2023-02-05T14:42:54;4.90;99.90
5023;DHT22;2530;47.990;7.866;2023-02-05T14:45:22;4.80;99.90
5023;DHT22;2530;47.990;7.866;2023-02-05T14:47:49;4.90;99.90
5023;DHT22;2530;47.990;7.866;2023-02-05T14:50:29;4.90;99.90
5023;DHT22;2530;47.990;7.866;2023-02-05T14:52:59;4.90;99.90
5023;DHT22;2530;47.990;7.866;2023-02-05T14:55:28;4.90;99.90
5023;DHT22;2530;47.990;7.866;2023-02-05T14:58:23;4.90;99.90
5023;DHT22;2530;47.990;7.866;2023-02-05T15:00:50;5.00;99.90
5023;DHT22;2530;47.990;7.866;2023-02-05T15:03:30;5.00;99.90
5023;DHT22;2530;47.990;7.866;2023-02-05T15:06:16;5.00;99.90
5023;DHT22;2530;47.990;7.866;2023-02-05T15:08:57;4.90;99.90
5023;DHT22;2530;47.990;7.866;2023-02-05T15:11:36;4.90;99.90
5023;DHT22;2530;47.990;7.866;2023-02-05T15:16:44;4.90;99.90
5023;DHT22;2530;47.990;7.866;2023-02-05T15:19:11;4.90;99.90
5023;DHT22;2530;47.990;7.866;2023-02-05T15:21:49;4.90;99.90
5023;DHT22;2530;47.990;7.866;2023-02-05T15:24:21;4.90;99.90
5023;DHT22;2530;47.990;7.866;2023-02-05T15:29:46;4.80;99.90
5023;DHT22;2530;47.990;7.866;2023-02-05T15:32:34;4.90;99.90
5023;DHT22;2530;47.990;7.866;2023-02-05T15:35:05;4.90;99.90
5023;DHT22;2530;47.990;7.866;2023-02-05T15:40:24;4.80;99.90
5023;DHT22;2530;47.990;7.866;2023-02-05T15:42:57;4.40;99.90
5023;DHT22;2530;47.990;7.866;2023-02-05T15:45:24;4.70;99.90
5023;DHT22;2530;47.990;7.866;2023-02-05T15:50:26;4.60;99.90
5023;DHT22;2530;47.990;7.866;2023-02-05T15:52:52;4.60;99.90
5023;DHT22;2530;47.990;7.866;2023-02-05T15:55:19;4.60;99.90
5023;DHT22;2530;47.990;7.866;2023-02-05T15:57:46;4.70;99.90
5023;DHT22;2530;47.990;7.866;2023-02-05T16:00:21;4.60;99.90
5023;DHT22;2530;47.990;7.866;2023-02-05T16:02:56;4.70;99.90
5023;DHT22;2530;47.990;7.866;2023-02-05T16:05:23;4.60;99.90
5023;DHT22;2530;47.990;7.866;2023-02-05T16:07:50;4.70;99.90
5023;DHT22;2530;47.990;7.866;2023-02-05T16:10:30;4.80;99.90
5023;DHT22;2530;47.990;7.866;2023-02-05T16:13:06;4.60;99.90
5023;DHT22;2530;47.990;7.866;2023-02-05T16:15:38;4.60;99.90
5023;DHT22;2530;47.990;7.866;2023-02-05T16:18:10;4.50;99.90
5023;DHT22;2530;47.990;7.866;2023-02-05T16:20:45;4.60;99.90
5023;DHT22;2530;47.990;7.866;2023-02-05T16:23:32;4.60;99.90
5023;DHT22;2530;47.990;7.866;2023-02-05T16:26:02;4.60;99.90
5023;DHT22;2530;47.990;7.866;2023-02-05T16:28:36;4.50;99.90
5023;DHT22;2530;47.990;7.866;2023-02-05T16:31:05;4.60;99.90
5023;DHT22;2530;47.990;7.866;2023-02-05T16:33:35;4.50;99.90
5023;DHT22;2530;47.990;7.866;2023-02-05T16:36:05;4.40;99.90
5023;DHT22;2530;47.990;7.866;2023-02-05T16:38:34;4.40;99.90
5023;DHT22;2530;47.990;7.866;2023-02-05T16:41:24;4.50;99.90
5023;DHT22;2530;47.990;7.866;2023-02-05T16:43:52;4.40;99.90
5023;DHT22;2530;47.990;7.866;2023-02-05T16:46:22;4.40;99.90
5023;DHT22;2530;47.990;7.866;2023-02-05T16:48:56;4.20;99.90
5023;DHT22;2530;47.990;7.866;2023-02-05T16:56:38;4.10;99.90
5023;DHT22;2530;47.990;7.866;2023-02-05T16:59:16;4.20;99.90
5023;DHT22;2530;47.990;7.866;2023-02-05T17:01:43;4.10;99.90
5023;DHT22;2530;47.990;7.866;2023-02-05T17:04:22;4.20;99.90
5023;DHT22;2530;47.990;7.866;2023-02-05T17:06:52;4.10;99.90
5023;DHT22;2530;47.990;7.866;2023-02-05T17:09:50;4.10;99.90
5023;DHT22;2530;47.990;7.866;2023-02-05T17:14:59;5.30;99.90
5023;DHT22;2530;47.990;7.866;2023-02-05T17:17:26;3.90;99.90
5023;DHT22;2530;47.990;7.866;2023-02-05T17:22:39;3.90;99.90
5023;DHT22;2530;47.990;7.866;2023-02-05T17:25:05;3.90;99.90
5023;DHT22;2530;47.990;7.866;2023-02-05T17:27:34;3.80;99.90
5023;DHT22;2530;47.990;7.866;2023-02-05T17:30:02;3.80;99.90
5023;DHT22;2530;47.990;7.866;2023-02-05T17:32:29;3.90;99.90
5023;DHT22;2530;47.990;7.866;2023-02-05T17:34:55;3.90;99.90
5023;DHT22;2530;47.990;7.866;2023-02-05T17:37:21;3.80;99.90
5023;DHT22;2530;47.990;7.866;2023-02-05T17:39:47;3.70;99.90
5023;DHT22;2530;47.990;7.866;2023-02-05T17:42:22;3.50;99.90
5023;DHT22;2530;47.990;7.866;2023-02-05T17:44:48;3.70;99.90
5023;DHT22;2530;47.990;7.866;2023-02-05T17:47:14;3.80;99.90
5023;DHT22;2530;47.990;7.866;2023-02-05T17:49:40;7.70;99.90
5023;DHT22;2530;47.990;7.866;2023-02-05T17:52:06;3.80;99.90
5023;DHT22;2530;47.990;7.866;2023-02-05T17:54:32;4.20;99.90
5023;DHT22;2530;47.990;7.866;2023-02-05T17:57:13;3.80;99.90
5023;DHT22;2530;47.990;7.866;2023-02-05T17:59:40;3.80;99.90
5023;DHT22;2530;47.990;7.866;2023-02-05T18:02:07;3.80;99.90
5023;DHT22;2530;47.990;7.866;2023-02-05T18:04:33;3.70;99.90
5023;DHT22;2530;47.990;7.866;2023-02-05T18:06:58;3.70;99.90
5023;DHT22;2530;47.990;7.866;2023-02-05T18:09:24;3.80;99.90
5023;DHT22;2530;47.990;7.866;2023-02-05T18:11:50;3.70;99.90
5023;DHT22;2530;47.990;7.866;2023-02-05T18:14:15;3.70;99.90
5023;DHT22;2530;47.990;7.866;2023-02-05T18:16:41;3.60;99.90
5023;DHT22;2530;47.990;7.866;2023-02-05T18:19:06;3.60;99.90
5023;DHT22;2530;47.990;7.866;2023-02-05T18:21:32;3.70;99.90
5023;DHT22;2530;47.990;7.866;2023-02-05T18:23:59;3.80;99.90
5023;DHT22;2530;47.990;7.866;2023-02-05T18:26:24;3.70;99.90
5023;DHT22;2530;47.990;7.866;2023-02-05T18:28:51;3.80;99.90
5023;DHT22;2530;47.990;7.866;2023-02-05T18:31:17;3.90;99.90
5023;DHT22;2530;47.990;7.866;2023-02-05T18:33:42;3.70;99.90
5023;DHT22;2530;47.990;7.866;2023-02-05T18:36:10;3.70;99.90
5023;DHT22;2530;47.990;7.866;2023-02-05T18:38:38;3.70;99.90
5023;DHT22;2530;47.990;7.866;2023-02-05T18:41:15;3.50;99.90
5023;DHT22;2530;47.990;7.866;2023-02-05T18:43:41;3.80;99.90
5023;DHT22;2530;47.990;7.866;2023-02-05T18:46:10;3.70;99.90